createdAt,value
2018-06-08T00:00:32.634Z,17.07
2018-06-08T00:03:01.401Z,16.07
2018-06-08T00:05:30.062Z,15.37
2018-06-08T00:07:59.825Z,14.90
2018-06-08T00:10:35.661Z,14.03
2018-06-08T00:13:07.380Z,14.50
2018-06-08T00:15:46.039Z,14.40
2018-06-08T00:18:14.690Z,13.83
2018-06-08T00:20:43.558Z,14.00
2018-06-08T00:23:12.332Z,14.00
2018-06-08T00:25:43.286Z,14.57
2018-06-08T00:28:29.697Z,15.13
2018-06-08T00:31:00.026Z,14.73
2018-06-08T00:36:08.607Z,13.93
2018-06-08T00:38:37.263Z,15.10
2018-06-08T00:41:06.042Z,14.43
2018-06-08T00:43:39.707Z,14.97
2018-06-08T00:46:18.018Z,15.10
2018-06-08T00:48:58.474Z,14.87
2018-06-08T00:51:27.159Z,15.00
2018-06-08T00:53:56.008Z,15.17
2018-06-08T00:57:33.637Z,15.33
2018-06-08T01:00:06.979Z,15.10
2018-06-08T01:02:46.581Z,15.33
2018-06-08T01:05:27.375Z,15.53
2018-06-08T01:08:02.078Z,15.60
2018-06-08T01:10:30.758Z,15.50
2018-06-08T01:12:59.517Z,15.17
2018-06-08T01:15:28.145Z,16.17
2018-06-08T01:18:00.054Z,15.63
2018-06-08T01:20:35.026Z,16.80
2018-06-08T01:23:06.668Z,16.30
2018-06-08T01:25:45.979Z,16.73
2018-06-08T01:28:14.623Z,16.17
2018-06-08T01:30:43.626Z,17.03
2018-06-08T01:33:12.330Z,15.90
2018-06-08T01:35:43.777Z,16.70
2018-06-08T01:38:15.098Z,16.50
2018-06-08T01:40:54.709Z,16.20
2018-06-08T01:43:23.341Z,16.87
2018-06-08T01:45:52.075Z,17.13
2018-06-08T01:48:20.742Z,17.63
2018-06-08T01:50:49.641Z,17.10
2018-06-08T01:53:23.794Z,16.17
2018-06-08T01:56:02.110Z,16.40
2018-06-08T01:58:35.458Z,17.00
2018-06-08T02:01:04.194Z,18.27
2018-06-08T02:03:33.118Z,17.20
2018-06-08T02:06:01.853Z,17.83
2018-06-08T02:08:30.627Z,17.30
2018-06-08T02:10:59.945Z,18.20
2018-06-08T02:13:30.937Z,17.93
2018-06-08T02:16:02.614Z,17.80
2018-06-08T02:18:31.225Z,18.17
2018-06-08T02:20:59.966Z,15.97
2018-06-08T02:23:28.681Z,15.40
2018-06-08T02:25:57.436Z,16.40
2018-06-08T02:28:26.935Z,17.43
2018-06-08T02:31:02.897Z,17.13
2018-06-08T02:33:35.747Z,19.60
2018-06-08T02:36:04.385Z,18.37
2018-06-08T02:38:33.036Z,20.10
2018-06-08T02:41:01.944Z,19.43
2018-06-08T02:43:31.254Z,20.13
2018-06-08T02:46:03.166Z,19.33
2018-06-08T02:48:35.098Z,18.23
2018-06-08T02:51:07.147Z,18.37
2018-06-08T02:53:35.757Z,16.90
2018-06-08T02:56:04.477Z,18.03
2018-06-08T02:58:33.241Z,17.77
2018-06-08T03:01:03.073Z,17.40
2018-06-08T03:03:38.907Z,17.40
2018-06-08T03:06:11.030Z,18.67
2018-06-08T03:08:46.281Z,19.30
2018-06-08T03:11:14.954Z,20.87
2018-06-08T03:13:44.599Z,21.33
2018-06-08T03:16:13.253Z,21.53
2018-06-08T03:18:42.194Z,21.13
2018-06-08T03:21:13.742Z,21.83
2018-06-08T03:23:46.990Z,20.97
2018-06-08T03:26:19.496Z,20.33
2018-06-08T03:28:48.106Z,21.63
2018-06-08T03:31:16.889Z,21.17
2018-06-08T03:33:45.599Z,21.47
2018-06-08T03:36:18.148Z,23.00
2018-06-08T03:38:50.727Z,22.37
2018-06-08T03:41:23.829Z,22.40
2018-06-08T03:43:53.708Z,23.27
2018-06-08T03:46:22.369Z,22.60
2018-06-08T03:48:51.054Z,23.00
2018-06-08T03:51:19.766Z,22.97
2018-06-08T03:53:51.594Z,23.40
2018-06-08T03:56:23.380Z,23.07
2018-06-08T03:58:54.975Z,23.83
2018-06-08T04:01:23.615Z,23.17
2018-06-08T04:03:52.377Z,23.60
2018-06-08T04:06:21.029Z,23.50
2018-06-08T04:08:49.648Z,23.57
2018-06-08T04:11:22.896Z,23.23
2018-06-08T04:13:58.758Z,25.07
2018-06-08T04:16:31.491Z,24.33
2018-06-08T04:19:00.130Z,25.27
2018-06-08T04:21:28.845Z,25.83
2018-06-08T04:23:57.533Z,24.87
2018-06-08T04:26:26.173Z,24.93
2018-06-08T04:28:59.195Z,24.87
2018-06-08T04:31:42.074Z,25.47
2018-06-08T04:34:19.572Z,27.03
2018-06-08T04:36:48.215Z,26.97
2018-06-08T04:39:16.822Z,25.57
2018-06-08T04:41:45.583Z,24.33
2018-06-08T04:44:14.313Z,24.13
2018-06-08T04:46:47.990Z,24.90
2018-06-08T04:49:18.950Z,25.17
2018-06-08T04:51:50.857Z,24.50
2018-06-08T04:54:19.538Z,23.87
2018-06-08T04:56:48.217Z,23.73
2018-06-08T04:59:16.831Z,23.37
2018-06-08T05:01:46.585Z,24.13
2018-06-08T05:04:19.435Z,22.77
2018-06-08T05:06:54.445Z,23.17
2018-06-08T05:09:27.043Z,22.67
2018-06-08T05:11:55.670Z,23.07
2018-06-08T05:14:24.397Z,22.17
2018-06-08T05:16:53.098Z,22.40
2018-06-08T05:19:26.006Z,22.30
2018-06-08T05:21:58.538Z,21.67
2018-06-08T05:24:30.324Z,21.83
2018-06-08T05:27:02.814Z,19.50
2018-06-08T05:29:31.446Z,17.30
2018-06-08T05:32:00.177Z,15.73
2018-06-08T05:34:28.838Z,14.77
2018-06-08T05:36:59.353Z,14.33
2018-06-08T05:39:30.695Z,14.03
2018-06-08T05:42:03.342Z,13.63
2018-06-08T05:44:35.950Z,14.13
2018-06-08T05:47:04.652Z,13.80
2018-06-08T05:49:33.406Z,12.83
2018-06-08T05:52:02.101Z,12.53
2018-06-08T05:54:35.551Z,12.07
2018-06-08T06:00:07.432Z,11.50
2018-06-08T06:02:36.190Z,10.57
2018-06-08T06:05:05.090Z,10.13
2018-06-08T06:07:33.938Z,8.57
2018-06-08T06:10:02.603Z,7.93
2018-06-08T06:15:45.682Z,7.17
2018-06-08T06:18:26.534Z,6.50
2018-06-08T06:20:55.185Z,6.43
2018-06-08T06:23:24.066Z,6.37
2018-06-08T06:25:53.725Z,5.87
2018-06-08T06:28:23.593Z,5.70
2018-06-08T06:31:14.840Z,5.57
2018-06-08T06:33:54.292Z,4.97
2018-06-08T06:36:31.359Z,4.83
2018-06-08T06:39:00.001Z,5.23
2018-06-08T06:41:28.818Z,5.07
2018-06-08T06:43:57.736Z,4.60
2018-06-08T06:46:29.255Z,4.80
2018-06-08T06:54:43.586Z,4.80
2018-06-08T06:57:12.346Z,4.60
2018-06-08T06:59:41.158Z,4.33
2018-06-08T07:02:10.339Z,4.13
2018-06-08T07:07:38.951Z,4.07
2018-06-08T07:11:01.637Z,3.60
2018-06-08T07:13:30.990Z,4.10
2018-06-08T07:15:59.794Z,3.77
2018-06-08T07:18:29.214Z,4.00
2018-06-08T07:21:00.169Z,3.67
2018-06-08T07:24:44.231Z,3.47
2018-06-08T07:27:19.264Z,3.47
2018-06-08T07:29:47.917Z,3.40
2018-06-08T07:32:16.702Z,3.97
2018-06-08T07:34:45.450Z,4.03
2018-06-08T07:37:28.324Z,3.73
2018-06-08T07:39:59.988Z,4.27
2018-06-08T07:42:42.414Z,4.30
2018-06-08T07:47:57.358Z,4.27
2018-06-08T07:50:27.549Z,4.73
2018-06-08T07:52:56.397Z,5.93
2018-06-08T07:55:26.533Z,5.83
2018-06-08T07:57:55.530Z,6.00
2018-06-08T08:00:24.559Z,6.00
2018-06-08T08:02:53.506Z,6.33
2018-06-08T08:05:22.901Z,5.97
2018-06-08T08:07:52.098Z,6.30
2018-06-08T08:10:21.540Z,6.23
2018-06-08T08:21:58.640Z,9.63
2018-06-08T08:24:27.686Z,9.90
2018-06-08T08:26:56.678Z,9.33
2018-06-08T08:38:33.982Z,8.93
2018-06-08T08:41:03.291Z,10.27
2018-06-08T08:43:32.520Z,10.90
2018-06-08T08:55:10.804Z,10.57
2018-06-08T08:57:40.199Z,10.43
2018-06-08T09:00:09.328Z,10.07
2018-06-08T09:11:47.260Z,9.87
2018-06-08T09:14:16.798Z,9.20
2018-06-08T09:16:45.939Z,10.43
2018-06-08T09:28:23.839Z,9.20
2018-06-08T09:30:56.302Z,9.63
2018-06-08T09:33:48.672Z,9.33
2018-06-08T09:48:20.360Z,9.63
2018-06-08T09:50:49.769Z,9.90
2018-06-08T10:20:45.564Z,9.97
2018-06-08T10:23:19.568Z,12.00
2018-06-08T10:25:50.801Z,12.37
2018-06-08T10:37:30.100Z,12.60
2018-06-08T10:39:59.748Z,13.00
2018-06-08T10:42:30.191Z,12.00
2018-06-08T10:54:08.276Z,12.83
2018-06-08T10:56:42.102Z,14.20
2018-06-08T10:59:11.217Z,14.37
2018-06-08T11:10:52.295Z,16.77
2018-06-08T11:13:37.027Z,17.40
2018-06-08T11:16:18.447Z,16.17
2018-06-08T11:27:56.240Z,17.60
2018-06-08T11:30:25.440Z,17.20
2018-06-08T11:32:55.022Z,17.07
2018-06-08T11:47:14.771Z,15.93
2018-06-08T11:49:44.104Z,16.33
2018-06-08T11:52:15.612Z,16.43
2018-06-08T12:03:52.657Z,15.80
2018-06-08T12:06:21.900Z,15.87
2018-06-08T12:08:51.195Z,15.43
2018-06-08T12:20:32.755Z,16.00
2018-06-08T12:23:03.721Z,16.50
2018-06-08T12:25:51.112Z,15.00
2018-06-08T12:37:31.471Z,15.73
2018-06-08T12:40:01.352Z,16.43
2018-06-08T12:42:31.237Z,16.93
2018-06-08T12:54:09.941Z,17.27
2018-06-08T12:56:39.375Z,17.33
2018-06-08T12:59:08.767Z,17.33
2018-06-08T13:10:46.644Z,17.90
2018-06-08T13:13:15.696Z,17.90
2018-06-08T13:15:44.889Z,18.57
2018-06-08T13:27:22.237Z,17.73
2018-06-08T13:29:51.300Z,17.50
2018-06-08T13:32:20.501Z,17.70
2018-06-08T13:44:18.955Z,17.23
2018-06-08T13:46:48.645Z,16.90
2018-06-08T13:49:24.665Z,15.27
2018-06-08T14:03:49.924Z,16.17
2018-06-08T14:06:23.801Z,16.83
2018-06-08T14:18:25.891Z,13.80
2018-06-08T14:20:55.830Z,15.03
2018-06-08T14:23:25.020Z,14.57
2018-06-08T14:25:56.746Z,14.37
2018-06-08T14:37:34.667Z,14.23
2018-06-08T14:40:03.794Z,14.60
2018-06-08T14:42:34.216Z,14.07
2018-06-08T14:54:12.738Z,13.57
2018-06-08T14:56:42.047Z,13.70
2018-06-08T14:59:11.041Z,11.63
2018-06-08T15:10:17.704Z,12.70
2018-06-08T15:12:46.888Z,11.97
2018-06-08T15:15:16.031Z,13.07
2018-06-08T15:26:51.625Z,11.50
2018-06-08T15:29:20.688Z,12.47
2018-06-08T15:31:50.034Z,12.87
2018-06-08T15:34:19.701Z,11.33
2018-06-08T15:45:57.259Z,11.47
2018-06-08T15:48:26.187Z,12.00
2018-06-08T15:50:55.147Z,11.27
2018-06-08T16:02:33.148Z,12.60
2018-06-08T16:05:02.377Z,12.70
2018-06-08T16:07:31.524Z,13.33
2018-06-08T16:19:09.280Z,13.83
2018-06-08T16:21:38.378Z,14.50
2018-06-08T16:24:07.469Z,13.80
2018-06-08T16:35:44.995Z,13.33
2018-06-08T16:38:14.061Z,12.63
2018-06-08T16:40:48.712Z,13.20
2018-06-08T16:52:26.734Z,13.57
2018-06-08T16:54:57.397Z,13.13
2018-06-08T16:57:26.770Z,14.27
2018-06-08T17:00:03.812Z,13.70
2018-06-08T17:08:38.557Z,13.03
2018-06-08T17:11:07.768Z,12.40
2018-06-08T17:13:36.762Z,13.50
2018-06-08T17:16:05.615Z,12.83
2018-06-08T17:18:34.803Z,12.70
2018-06-08T17:21:04.202Z,13.10
2018-06-08T17:23:33.640Z,13.57
2018-06-08T17:26:02.905Z,12.77
2018-06-08T17:28:31.797Z,13.90
2018-06-08T17:31:00.789Z,13.97
2018-06-08T17:33:29.993Z,13.83
2018-06-08T17:35:59.507Z,14.57
2018-06-08T17:38:31.117Z,14.37
2018-06-08T17:41:00.624Z,13.83
2018-06-08T17:43:29.575Z,12.53
2018-06-08T17:45:58.490Z,14.53
2018-06-08T17:48:27.431Z,14.13
2018-06-08T17:50:56.631Z,13.93
2018-06-08T17:53:30.358Z,14.60
2018-06-08T17:55:59.534Z,14.70
2018-06-08T17:58:28.590Z,15.93
2018-06-08T18:00:57.734Z,14.20
2018-06-08T18:03:26.611Z,14.27
2018-06-08T18:05:55.583Z,15.07
2018-06-08T18:08:24.685Z,15.90
2018-06-08T18:10:54.761Z,14.90
2018-06-08T18:13:23.972Z,15.87
2018-06-08T18:15:53.066Z,16.63
2018-06-08T18:18:21.906Z,15.63
2018-06-08T18:20:50.867Z,17.30
2018-06-08T18:23:19.758Z,16.00
2018-06-08T18:25:49.211Z,16.80
2018-06-08T18:28:19.438Z,16.67
2018-06-08T18:30:48.785Z,16.37
2018-06-08T18:33:18.184Z,17.17
2018-06-08T18:35:47.071Z,16.63
2018-06-08T18:38:16.027Z,16.63
2018-06-08T18:40:44.910Z,17.57
2018-06-08T18:43:14.872Z,16.87
2018-06-08T18:45:44.718Z,15.77
2018-06-08T18:48:14.407Z,16.77
2018-06-08T18:50:44.415Z,15.70
2018-06-08T18:53:13.373Z,16.17
2018-06-08T18:55:42.259Z,16.40
2018-06-08T18:58:11.226Z,15.77
2018-06-08T19:00:41.117Z,16.33
2018-06-08T19:03:12.083Z,16.03
2018-06-08T19:05:42.444Z,16.93
2018-06-08T19:08:12.777Z,15.40
2018-06-08T19:10:41.772Z,16.03
2018-06-08T19:13:21.760Z,15.63
2018-06-08T19:15:51.226Z,15.07
2018-06-08T19:18:23.118Z,14.73
2018-06-08T19:21:10.686Z,15.03
2018-06-08T19:23:51.556Z,15.47
2018-06-08T19:26:20.455Z,14.97
2018-06-08T19:28:49.223Z,15.30
2018-06-08T19:31:17.996Z,16.50
2018-06-08T19:33:47.535Z,16.27
2018-06-08T19:36:17.320Z,16.70
2018-06-08T19:38:48.128Z,15.33
2018-06-08T19:41:18.544Z,16.60
2018-06-08T19:43:47.348Z,16.90
2018-06-08T19:46:16.235Z,16.60
2018-06-08T19:48:45.144Z,15.93
2018-06-08T19:51:14.296Z,16.83
2018-06-08T19:53:44.805Z,16.80
2018-06-08T19:56:14.573Z,17.10
2018-06-08T19:58:46.145Z,17.47
2018-06-08T20:01:15.138Z,16.83
2018-06-08T20:03:44.254Z,16.37
2018-06-08T20:06:13.412Z,18.30
2018-06-08T20:08:53.515Z,18.23
2018-06-08T20:14:48.106Z,19.20
2018-06-08T20:17:17.171Z,19.13
2018-06-08T20:19:46.590Z,17.47
2018-06-08T20:22:15.595Z,18.67
2018-06-08T20:24:44.854Z,18.47
2018-06-08T20:27:14.580Z,18.43
2018-06-08T20:29:44.132Z,18.00
2018-06-08T20:32:14.070Z,17.63
2018-06-08T20:34:43.325Z,17.70
2018-06-08T20:37:12.226Z,18.30
2018-06-08T20:39:41.079Z,18.87
2018-06-08T20:42:10.513Z,18.53
2018-06-08T20:44:41.749Z,18.93
2018-06-08T20:47:12.041Z,17.77
2018-06-08T20:49:41.576Z,19.07
2018-06-08T20:52:10.604Z,17.60
2018-06-08T20:54:39.445Z,18.27
2018-06-08T20:57:29.032Z,18.57
2018-06-08T20:59:58.238Z,18.37
2018-06-08T21:02:28.515Z,18.67
2018-06-08T21:04:58.542Z,18.67
2018-06-08T21:07:30.252Z,17.57
2018-06-08T21:09:59.423Z,17.67
2018-06-08T21:12:28.269Z,17.90
2018-06-08T21:14:57.209Z,17.80
2018-06-08T21:17:28.352Z,17.50
2018-06-08T21:19:58.819Z,16.57
2018-06-08T21:22:31.286Z,16.63
2018-06-08T21:25:04.647Z,16.57
2018-06-08T21:27:33.950Z,17.47
2018-06-08T21:30:02.835Z,15.77
2018-06-08T21:32:32.140Z,15.50
2018-06-08T21:35:01.828Z,15.40
2018-06-08T21:37:31.581Z,15.80
2018-06-08T21:40:00.859Z,15.93
2018-06-08T21:42:31.409Z,16.13
2018-06-08T21:45:00.449Z,15.47
2018-06-08T21:47:29.414Z,16.43
2018-06-08T21:49:58.829Z,15.43
2018-06-08T21:52:28.712Z,17.17
2018-06-08T21:54:58.539Z,15.80
2018-06-08T21:57:28.264Z,14.30
2018-06-08T21:59:57.176Z,14.77
2018-06-08T22:02:26.047Z,15.23
2018-06-08T22:04:55.109Z,14.57
2018-06-08T22:07:24.136Z,14.70
2018-06-08T22:09:53.462Z,15.07
2018-06-08T22:12:22.590Z,15.30
2018-06-08T22:14:54.018Z,15.07
2018-06-08T22:17:23.042Z,14.77
2018-06-08T22:19:51.870Z,15.20
2018-06-08T22:22:20.827Z,14.53
2018-06-08T22:24:50.065Z,14.83
2018-06-08T22:27:19.678Z,14.20
2018-06-08T22:29:49.298Z,15.27
2018-06-08T22:32:18.551Z,15.63
2018-06-08T22:34:48.006Z,15.13
2018-06-08T22:37:16.973Z,15.03
2018-06-08T22:39:45.925Z,15.07
2018-06-08T22:42:15.281Z,15.03
2018-06-08T22:44:44.647Z,14.43
2018-06-08T22:47:14.208Z,14.63
2018-06-08T22:49:43.751Z,14.73
2018-06-08T22:52:12.557Z,15.13
2018-06-08T22:54:42.876Z,13.53
2018-06-08T22:57:11.818Z,14.20
2018-06-08T22:59:40.817Z,14.27
2018-06-08T23:02:10.491Z,14.03
2018-06-08T23:04:40.391Z,14.40
2018-06-08T23:07:10.296Z,14.00
2018-06-08T23:09:39.131Z,14.50
2018-06-08T23:12:08.023Z,13.77
2018-06-08T23:14:37.014Z,14.20
2018-06-08T23:17:06.605Z,14.60
2018-06-08T23:19:35.963Z,15.13
2018-06-08T23:22:06.384Z,15.67
2018-06-08T23:24:37.368Z,15.70
2018-06-08T23:27:06.408Z,15.43
2018-06-08T23:29:35.267Z,15.43
2018-06-08T23:32:04.460Z,14.30
2018-06-08T23:34:33.822Z,15.27
2018-06-08T23:37:02.946Z,15.67
2018-06-08T23:39:32.690Z,15.27
2018-06-08T23:42:02.590Z,15.60
2018-06-08T23:44:49.450Z,15.13
2018-06-08T23:47:21.659Z,15.20
2018-06-08T23:49:50.721Z,15.40
2018-06-08T23:52:20.868Z,15.00
2018-06-08T23:54:51.107Z,15.77
2018-06-08T23:57:21.157Z,15.07
2018-06-08T23:59:50.033Z,16.03
